sensor_id;sensor_type;location;lat;lon;timestamp;pressure;altitude;pressure_sealevel;temperature;humidity
56198;BME280;42700;42.524;12.052;2022-07-23T00:02:01;95298.41;;;23.64;100.00
56198;BME280;42700;42.524;12.052;2022-07-23T00:04:26;94936.75;;;23.28;100.00
56198;BME280;42700;42.524;12.052;2022-07-23T00:06:52;95121.78;;;23.41;100.00
56198;BME280;42700;42.524;12.052;2022-07-23T00:09:17;95367.56;;;23.53;100.00
56198;BME280;42700;42.524;12.052;2022-07-23T00:11:43;95217.03;;;23.52;100.00
56198;BME280;42700;42.524;12.052;2022-07-23T00:14:08;95264.63;;;23.53;100.00
56198;BME280;42700;42.524;12.052;2022-07-23T00:16:34;95212.06;;;23.54;100.00
56198;BME280;42700;42.524;12.052;2022-07-23T00:18:59;95163.50;;;23.49;100.00
56198;BME280;42700;42.524;12.052;2022-07-23T00:21:26;95077.03;;;23.44;100.00
56198;BME280;42700;42.524;12.052;2022-07-23T00:23:52;95091.66;;;23.43;100.00
56198;BME280;42700;42.524;12.052;2022-07-23T00:26:17;95196.78;;;23.40;100.00
56198;BME280;42700;42.524;12.052;2022-07-23T00:28:43;95397.00;;;23.37;100.00
56198;BME280;42700;42.524;12.052;2022-07-23T00:31:08;95503.53;;;23.32;100.00
56198;BME280;42700;42.524;12.052;2022-07-23T00:33:34;95404.13;;;23.24;100.00
56198;BME280;42700;42.524;12.052;2022-07-23T00:35:59;95034.72;;;23.13;100.00
56198;BME280;42700;42.524;12.052;2022-07-23T00:38:25;94879.66;;;23.03;100.00
56198;BME280;42700;42.524;12.052;2022-07-23T00:40:50;95044.25;;;23.01;100.00
56198;BME280;42700;42.524;12.052;2022-07-23T00:43:16;95456.19;;;22.98;100.00
56198;BME280;42700;42.524;12.052;2022-07-23T00:45:41;95944.13;;;22.99;100.00
56198;BME280;42700;42.524;12.052;2022-07-23T00:48:07;96241.00;;;22.98;100.00
56198;BME280;42700;42.524;12.052;2022-07-23T00:50:32;96466.78;;;22.97;100.00
56198;BME280;42700;42.524;12.052;2022-07-23T00:52:58;96617.28;;;22.93;100.00
56198;BME280;42700;42.524;12.052;2022-07-23T00:55:23;96750.19;;;22.92;100.00
56198;BME280;42700;42.524;12.052;2022-07-23T00:57:49;96755.91;;;22.85;100.00
56198;BME280;42700;42.524;12.052;2022-07-23T01:00:15;96665.00;;;22.79;100.00
56198;BME280;42700;42.524;12.052;2022-07-23T01:02:41;96680.19;;;22.75;100.00
56198;BME280;42700;42.524;12.052;2022-07-23T01:05:07;96712.16;;;22.67;100.00
56198;BME280;42700;42.524;12.052;2022-07-23T01:07:33;96838.75;;;22.71;100.00
56198;BME280;42700;42.524;12.052;2022-07-23T01:09:58;96800.38;;;22.63;100.00
56198;BME280;42700;42.524;12.052;2022-07-23T01:12:24;96425.00;;;22.50;100.00
56198;BME280;42700;42.524;12.052;2022-07-23T01:14:54;96506.13;;;22.50;100.00
56198;BME280;42700;42.524;12.052;2022-07-23T01:17:19;96915.66;;;22.59;100.00
56198;BME280;42700;42.524;12.052;2022-07-23T01:19:45;97018.47;;;22.59;100.00
56198;BME280;42700;42.524;12.052;2022-07-23T01:22:11;97089.34;;;22.66;100.00
56198;BME280;42700;42.524;12.052;2022-07-23T01:24:36;97148.88;;;22.77;100.00
56198;BME280;42700;42.524;12.052;2022-07-23T01:27:02;97110.19;;;22.76;100.00
56198;BME280;42700;42.524;12.052;2022-07-23T01:29:28;97107.22;;;22.78;100.00
56198;BME280;42700;42.524;12.052;2022-07-23T01:31:53;97063.66;;;22.79;100.00
56198;BME280;42700;42.524;12.052;2022-07-23T01:34:19;96987.03;;;22.79;100.00
56198;BME280;42700;42.524;12.052;2022-07-23T01:36:44;96919.38;;;22.74;100.00
56198;BME280;42700;42.524;12.052;2022-07-23T01:39:10;96810.94;;;22.65;100.00
56198;BME280;42700;42.524;12.052;2022-07-23T01:41:35;96678.94;;;22.57;100.00
56198;BME280;42700;42.524;12.052;2022-07-23T01:44:01;96548.63;;;22.50;100.00
56198;BME280;42700;42.524;12.052;2022-07-23T01:46:26;96488.31;;;22.44;100.00
56198;BME280;42700;42.524;12.052;2022-07-23T01:48:52;96431.06;;;22.37;100.00
56198;BME280;42700;42.524;12.052;2022-07-23T01:51:17;96354.88;;;22.29;100.00
56198;BME280;42700;42.524;12.052;2022-07-23T01:53:43;96333.78;;;22.26;100.00
56198;BME280;42700;42.524;12.052;2022-07-23T01:56:08;96437.06;;;22.28;100.00
56198;BME280;42700;42.524;12.052;2022-07-23T01:58:34;96533.84;;;22.26;100.00
56198;BME280;42700;42.524;12.052;2022-07-23T02:00:59;96660.66;;;22.28;100.00
56198;BME280;42700;42.524;12.052;2022-07-23T02:03:25;96682.56;;;22.32;100.00
56198;BME280;42700;42.524;12.052;2022-07-23T02:05:51;96603.59;;;22.35;100.00
56198;BME280;42700;42.524;12.052;2022-07-23T02:08:17;96463.50;;;22.37;100.00
56198;BME280;42700;42.524;12.052;2022-07-23T02:10:43;96289.66;;;22.36;100.00
56198;BME280;42700;42.524;12.052;2022-07-23T02:13:08;96193.34;;;22.40;100.00
56198;BME280;42700;42.524;12.052;2022-07-23T02:15:34;95968.78;;;22.32;100.00
56198;BME280;42700;42.524;12.052;2022-07-23T02:18:00;95830.44;;;22.24;100.00
56198;BME280;42700;42.524;12.052;2022-07-23T02:20:25;95773.25;;;22.17;100.00
56198;BME280;42700;42.524;12.052;2022-07-23T02:22:51;95809.81;;;22.15;100.00
56198;BME280;42700;42.524;12.052;2022-07-23T02:25:17;95904.16;;;22.11;100.00
56198;BME280;42700;42.524;12.052;2022-07-23T02:27:43;96035.59;;;22.07;100.00
56198;BME280;42700;42.524;12.052;2022-07-23T02:30:08;96128.09;;;21.99;100.00
56198;BME280;42700;42.524;12.052;2022-07-23T02:32:34;96222.75;;;21.93;100.00
56198;BME280;42700;42.524;12.052;2022-07-23T02:34:59;96337.31;;;21.92;100.00
56198;BME280;42700;42.524;12.052;2022-07-23T02:37:25;96413.00;;;21.87;100.00
56198;BME280;42700;42.524;12.052;2022-07-23T02:39:51;96453.03;;;21.80;100.00
56198;BME280;42700;42.524;12.052;2022-07-23T02:42:16;96527.34;;;21.78;100.00
56198;BME280;42700;42.524;12.052;2022-07-23T02:44:43;96626.50;;;21.77;100.00
56198;BME280;42700;42.524;12.052;2022-07-23T02:47:09;96612.50;;;21.70;100.00
56198;BME280;42700;42.524;12.052;2022-07-23T02:49:35;96566.59;;;21.65;100.00
56198;BME280;42700;42.524;12.052;2022-07-23T02:52:00;96491.50;;;21.62;100.00
56198;BME280;42700;42.524;12.052;2022-07-23T02:54:25;96563.31;;;21.63;100.00
56198;BME280;42700;42.524;12.052;2022-07-23T02:56:51;96611.94;;;21.63;100.00
56198;BME280;42700;42.524;12.052;2022-07-23T02:59:17;96577.38;;;21.60;100.00
56198;BME280;42700;42.524;12.052;2022-07-23T03:01:43;96545.53;;;21.62;100.00
56198;BME280;42700;42.524;12.052;2022-07-23T03:04:09;96574.69;;;21.65;100.00
56198;BME280;42700;42.524;12.052;2022-07-23T03:06:35;96661.13;;;21.70;100.00
56198;BME280;42700;42.524;12.052;2022-07-23T03:09:00;96754.03;;;21.74;100.00
56198;BME280;42700;42.524;12.052;2022-07-23T03:11:26;96716.75;;;21.71;100.00
56198;BME280;42700;42.524;12.052;2022-07-23T03:13:51;96712.44;;;21.70;100.00
56198;BME280;42700;42.524;12.052;2022-07-23T03:16:17;96683.25;;;21.67;100.00
56198;BME280;42700;42.524;12.052;2022-07-23T03:18:42;96668.38;;;21.69;100.00
56198;BME280;42700;42.524;12.052;2022-07-23T03:21:08;96656.47;;;21.81;100.00
56198;BME280;42700;42.524;12.052;2022-07-23T03:23:33;96565.94;;;21.88;100.00
56198;BME280;42700;42.524;12.052;2022-07-23T03:25:59;96437.84;;;21.89;100.00
56198;BME280;42700;42.524;12.052;2022-07-23T03:28:24;96349.78;;;21.88;100.00
56198;BME280;42700;42.524;12.052;2022-07-23T03:30:50;96226.63;;;21.82;100.00
56198;BME280;42700;42.524;12.052;2022-07-23T03:33:16;96177.47;;;21.80;100.00
56198;BME280;42700;42.524;12.052;2022-07-23T03:35:42;96177.25;;;21.77;100.00
56198;BME280;42700;42.524;12.052;2022-07-23T03:38:07;96069.00;;;21.68;100.00
56198;BME280;42700;42.524;12.052;2022-07-23T03:40:33;95779.25;;;21.48;100.00
56198;BME280;42700;42.524;12.052;2022-07-23T03:42:58;95514.81;;;21.24;100.00
56198;BME280;42700;42.524;12.052;2022-07-23T03:45:24;95376.56;;;21.13;100.00
56198;BME280;42700;42.524;12.052;2022-07-23T03:47:49;95377.69;;;21.12;100.00
56198;BME280;42700;42.524;12.052;2022-07-23T03:50:15;95392.84;;;21.08;100.00
56198;BME280;42700;42.524;12.052;2022-07-23T03:52:40;95437.13;;;21.07;100.00
56198;BME280;42700;42.524;12.052;2022-07-23T03:55:06;95590.91;;;21.07;100.00
56198;BME280;42700;42.524;12.052;2022-07-23T03:57:32;95727.13;;;21.10;100.00
56198;BME280;42700;42.524;12.052;2022-07-23T03:59:57;95824.56;;;21.08;100.00
56198;BME280;42700;42.524;12.052;2022-07-23T04:02:23;95774.19;;;21.04;100.00
56198;BME280;42700;42.524;12.052;2022-07-23T04:04:48;95730.84;;;20.95;100.00
56198;BME280;42700;42.524;12.052;2022-07-23T04:07:14;95770.56;;;20.89;100.00
56198;BME280;42700;42.524;12.052;2022-07-23T04:09:40;95795.66;;;20.90;100.00
56198;BME280;42700;42.524;12.052;2022-07-23T04:12:06;95876.56;;;20.90;100.00
56198;BME280;42700;42.524;12.052;2022-07-23T04:14:31;95931.56;;;20.94;100.00
56198;BME280;42700;42.524;12.052;2022-07-23T04:16:57;95963.63;;;21.00;100.00
56198;BME280;42700;42.524;12.052;2022-07-23T04:19:22;96054.91;;;21.17;100.00
56198;BME280;42700;42.524;12.052;2022-07-23T04:21:48;96140.06;;;21.34;100.00
56198;BME280;42700;42.524;12.052;2022-07-23T04:24:13;96174.56;;;21.42;100.00
56198;BME280;42700;42.524;12.052;2022-07-23T04:26:39;96177.25;;;21.47;100.00
56198;BME280;42700;42.524;12.052;2022-07-23T04:29:04;96241.72;;;21.54;100.00
56198;BME280;42700;42.524;12.052;2022-07-23T04:31:30;96219.31;;;21.53;100.00
56198;BME280;42700;42.524;12.052;2022-07-23T04:33:55;96204.72;;;21.54;100.00
56198;BME280;42700;42.524;12.052;2022-07-23T04:36:21;96405.00;;;21.72;100.00
56198;BME280;42700;42.524;12.052;2022-07-23T04:38:46;96605.94;;;21.91;100.00
56198;BME280;42700;42.524;12.052;2022-07-23T04:41:12;96746.44;;;22.02;100.00
56198;BME280;42700;42.524;12.052;2022-07-23T04:43:37;96741.03;;;21.97;100.00
56198;BME280;42700;42.524;12.052;2022-07-23T04:46:02;96727.50;;;22.02;100.00
56198;BME280;42700;42.524;12.052;2022-07-23T04:48:28;96636.41;;;22.02;100.00
56198;BME280;42700;42.524;12.052;2022-07-23T04:50:53;96471.28;;;22.04;100.00
56198;BME280;42700;42.524;12.052;2022-07-23T04:53:19;96375.28;;;22.11;100.00
56198;BME280;42700;42.524;12.052;2022-07-23T04:55:45;96307.09;;;22.20;100.00
56198;BME280;42700;42.524;12.052;2022-07-23T04:58:10;96432.09;;;22.41;100.00
56198;BME280;42700;42.524;12.052;2022-07-23T05:00:36;96520.19;;;22.52;100.00
56198;BME280;42700;42.524;12.052;2022-07-23T05:03:01;96466.81;;;22.63;100.00
56198;BME280;42700;42.524;12.052;2022-07-23T05:05:27;96377.72;;;22.72;100.00
56198;BME280;42700;42.524;12.052;2022-07-23T05:07:52;96391.06;;;22.87;100.00
56198;BME280;42700;42.524;12.052;2022-07-23T05:10:18;96401.47;;;23.04;100.00
56198;BME280;42700;42.524;12.052;2022-07-23T05:12:43;96382.59;;;23.23;100.00
56198;BME280;42700;42.524;12.052;2022-07-23T05:15:09;96367.75;;;23.39;100.00
56198;BME280;42700;42.524;12.052;2022-07-23T05:17:34;96354.53;;;23.57;100.00
56198;BME280;42700;42.524;12.052;2022-07-23T05:20:00;96334.75;;;23.75;100.00
56198;BME280;42700;42.524;12.052;2022-07-23T05:22:25;96235.34;;;23.90;100.00
56198;BME280;42700;42.524;12.052;2022-07-23T05:24:51;96153.13;;;24.08;100.00
56198;BME280;42700;42.524;12.052;2022-07-23T05:27:17;96028.09;;;24.24;100.00
56198;BME280;42700;42.524;12.052;2022-07-23T05:29:42;95905.06;;;24.42;100.00
56198;BME280;42700;42.524;12.052;2022-07-23T05:32:07;95775.31;;;24.58;100.00
56198;BME280;42700;42.524;12.052;2022-07-23T05:34:33;95664.88;;;24.67;100.00
56198;BME280;42700;42.524;12.052;2022-07-23T05:36:58;95568.16;;;24.80;100.00
56198;BME280;42700;42.524;12.052;2022-07-23T05:39:24;95424.94;;;24.95;100.00
56198;BME280;42700;42.524;12.052;2022-07-23T05:41:49;95249.53;;;25.11;100.00
56198;BME280;42700;42.524;12.052;2022-07-23T05:44:15;95036.69;;;25.24;100.00
56198;BME280;42700;42.524;12.052;2022-07-23T05:46:40;94813.84;;;25.30;100.00
56198;BME280;42700;42.524;12.052;2022-07-23T05:49:06;94564.84;;;25.46;100.00
56198;BME280;42700;42.524;12.052;2022-07-23T05:51:31;94295.31;;;25.69;100.00
56198;BME280;42700;42.524;12.052;2022-07-23T05:53:57;93990.56;;;25.86;100.00
56198;BME280;42700;42.524;12.052;2022-07-23T05:56:22;93740.19;;;26.18;100.00
56198;BME280;42700;42.524;12.052;2022-07-23T05:58:48;93532.25;;;26.46;100.00
56198;BME280;42700;42.524;12.052;2022-07-23T06:01:13;93306.19;;;26.62;100.00
56198;BME280;42700;42.524;12.052;2022-07-23T06:03:39;93021.75;;;26.79;100.00
56198;BME280;42700;42.524;12.052;2022-07-23T06:06:05;92715.34;;;26.99;100.00
56198;BME280;42700;42.524;12.052;2022-07-23T06:08:30;92374.56;;;27.19;100.00
56198;BME280;42700;42.524;12.052;2022-07-23T06:10:56;91998.56;;;27.40;100.00
56198;BME280;42700;42.524;12.052;2022-07-23T06:13:21;91756.44;;;27.66;100.00
56198;BME280;42700;42.524;12.052;2022-07-23T06:15:47;91493.81;;;27.93;100.00
56198;BME280;42700;42.524;12.052;2022-07-23T06:18:13;91120.13;;;28.16;100.00
56198;BME280;42700;42.524;12.052;2022-07-23T06:20:38;90592.50;;;28.38;100.00
56198;BME280;42700;42.524;12.052;2022-07-23T06:23:04;89706.94;;;28.54;100.00
56198;BME280;42700;42.524;12.052;2022-07-23T06:25:29;88906.41;;;28.72;100.00
56198;BME280;42700;42.524;12.052;2022-07-23T06:27:55;88638.03;;;28.98;100.00
56198;BME280;42700;42.524;12.052;2022-07-23T06:30:20;88026.22;;;29.14;100.00
56198;BME280;42700;42.524;12.052;2022-07-23T06:32:47;87430.56;;;29.31;100.00
56198;BME280;42700;42.524;12.052;2022-07-23T06:35:13;87242.56;;;29.48;100.00
56198;BME280;42700;42.524;12.052;2022-07-23T06:37:39;86623.88;;;29.54;100.00
56198;BME280;42700;42.524;12.052;2022-07-23T06:40:05;86279.06;;;29.67;100.00
56198;BME280;42700;42.524;12.052;2022-07-23T06:42:30;86255.38;;;29.70;100.00
56198;BME280;42700;42.524;12.052;2022-07-23T06:44:56;86629.31;;;29.89;100.00
56198;BME280;42700;42.524;12.052;2022-07-23T06:47:22;87102.19;;;29.97;100.00
56198;BME280;42700;42.524;12.052;2022-07-23T06:49:47;87041.41;;;30.22;100.00
56198;BME280;42700;42.524;12.052;2022-07-23T06:52:12;86429.78;;;30.42;100.00
56198;BME280;42700;42.524;12.052;2022-07-23T06:54:38;85345.06;;;30.20;100.00
56198;BME280;42700;42.524;12.052;2022-07-23T06:57:03;85038.66;;;30.19;100.00
56198;BME280;42700;42.524;12.052;2022-07-23T06:59:29;86333.75;;;30.55;100.00
56198;BME280;42700;42.524;12.052;2022-07-23T07:01:54;85953.53;;;30.68;100.00
56198;BME280;42700;42.524;12.052;2022-07-23T07:04:20;85586.88;;;30.94;100.00
56198;BME280;42700;42.524;12.052;2022-07-23T07:06:45;85475.47;;;31.18;100.00
56198;BME280;42700;42.524;12.052;2022-07-23T07:09:11;83450.78;;;31.12;100.00
56198;BME280;42700;42.524;12.052;2022-07-23T07:11:37;82822.19;;;30.96;100.00
56198;BME280;42700;42.524;12.052;2022-07-23T07:14:02;85361.72;;;31.38;100.00
56198;BME280;42700;42.524;12.052;2022-07-23T07:16:29;83195.03;;;31.33;100.00
56198;BME280;42700;42.524;12.052;2022-07-23T07:18:54;83512.78;;;31.64;100.00
56198;BME280;42700;42.524;12.052;2022-07-23T07:21:20;83508.03;;;31.99;100.00
56198;BME280;42700;42.524;12.052;2022-07-23T07:23:45;82152.66;;;32.12;100.00
56198;BME280;42700;42.524;12.052;2022-07-23T07:26:11;81236.22;;;32.21;100.00
56198;BME280;42700;42.524;12.052;2022-07-23T07:28:36;79797.69;;;32.23;100.00
56198;BME280;42700;42.524;12.052;2022-07-23T07:31:02;81557.34;;;32.52;100.00
56198;BME280;42700;42.524;12.052;2022-07-23T07:33:28;80146.91;;;32.68;100.00
56198;BME280;42700;42.524;12.052;2022-07-23T07:35:54;79901.88;;;32.90;100.00
56198;BME280;42700;42.524;12.052;2022-07-23T07:38:19;79243.78;;;33.15;100.00
56198;BME280;42700;42.524;12.052;2022-07-23T07:40:45;80072.34;;;33.46;100.00
56198;BME280;42700;42.524;12.052;2022-07-23T07:43:10;77498.13;;;33.42;100.00
56198;BME280;42700;42.524;12.052;2022-07-23T07:45:36;79021.75;;;33.73;100.00
56198;BME280;42700;42.524;12.052;2022-07-23T07:48:01;77260.31;;;33.97;100.00
56198;BME280;42700;42.524;12.052;2022-07-23T07:50:27;75360.31;;;33.93;100.00
56198;BME280;42700;42.524;12.052;2022-07-23T07:52:53;77174.63;;;34.23;100.00
56198;BME280;42700;42.524;12.052;2022-07-23T07:55:18;78141.53;;;34.44;100.00
56198;BME280;42700;42.524;12.052;2022-07-23T07:57:44;73750.91;;;34.35;100.00
56198;BME280;42700;42.524;12.052;2022-07-23T08:00:09;75605.78;;;34.66;100.00
56198;BME280;42700;42.524;12.052;2022-07-23T08:02:42;76644.78;;;34.84;100.00
56198;BME280;42700;42.524;12.052;2022-07-23T08:05:08;76163.06;;;34.87;100.00
56198;BME280;42700;42.524;12.052;2022-07-23T08:07:34;74944.34;;;34.84;100.00
56198;BME280;42700;42.524;12.052;2022-07-23T08:09:59;71126.91;;;34.82;100.00
56198;BME280;42700;42.524;12.052;2022-07-23T08:12:25;69530.44;;;34.94;100.00
56198;BME280;42700;42.524;12.052;2022-07-23T08:14:50;68072.38;;;35.03;100.00
56198;BME280;42700;42.524;12.052;2022-07-23T08:17:16;67570.63;;;35.15;97.85
56198;BME280;42700;42.524;12.052;2022-07-23T08:19:41;72835.06;;;35.50;100.00
56198;BME280;42700;42.524;12.052;2022-07-23T08:22:07;71034.84;;;35.52;100.00
56198;BME280;42700;42.524;12.052;2022-07-23T08:24:33;71537.78;;;35.69;100.00
56198;BME280;42700;42.524;12.052;2022-07-23T08:26:58;71459.22;;;36.10;99.75
56198;BME280;42700;42.524;12.052;2022-07-23T08:29:23;70255.81;;;36.31;93.11
56198;BME280;42700;42.524;12.052;2022-07-23T08:31:49;70322.84;;;36.39;98.87
56198;BME280;42700;42.524;12.052;2022-07-23T08:34:14;71176.50;;;36.55;96.48
56198;BME280;42700;42.524;12.052;2022-07-23T08:36:40;70327.25;;;36.62;94.95
56198;BME280;42700;42.524;12.052;2022-07-23T08:39:05;68606.22;;;36.63;93.20
56198;BME280;42700;42.524;12.052;2022-07-23T08:41:31;68379.25;;;36.83;90.69
56198;BME280;42700;42.524;12.052;2022-07-23T08:43:56;67604.41;;;36.83;88.50
56198;BME280;42700;42.524;12.052;2022-07-23T08:46:24;65575.53;;;36.92;81.27
56198;BME280;42700;42.524;12.052;2022-07-23T08:48:49;61450.47;;;36.87;74.72
56198;BME280;42700;42.524;12.052;2022-07-23T08:51:15;62527.59;;;37.06;75.18
56198;BME280;42700;42.524;12.052;2022-07-23T08:53:41;61632.91;;;37.16;73.13
56198;BME280;42700;42.524;12.052;2022-07-23T08:56:08;63016.47;;;37.44;78.17
56198;BME280;42700;42.524;12.052;2022-07-23T08:58:34;67826.03;;;37.82;82.64
56198;BME280;42700;42.524;12.052;2022-07-23T09:01:00;67662.47;;;37.93;84.78
56198;BME280;42700;42.524;12.052;2022-07-23T09:03:27;71166.69;;;38.31;84.83
56198;BME280;42700;42.524;12.052;2022-07-23T09:05:54;65869.84;;;38.09;71.21
56198;BME280;42700;42.524;12.052;2022-07-23T09:08:21;68909.16;;;38.70;78.14
56198;BME280;42700;42.524;12.052;2022-07-23T09:13:23;59646.44;;;37.88;65.21
56198;BME280;42700;42.524;12.052;2022-07-23T09:15:49;61548.00;;;38.23;68.00
56198;BME280;42700;42.524;12.052;2022-07-23T09:18:16;63852.75;;;38.62;65.10
56198;BME280;42700;42.524;12.052;2022-07-23T09:20:43;69806.56;;;39.09;79.75
56198;BME280;42700;42.524;12.052;2022-07-23T09:23:09;70866.03;;;39.29;73.64
56198;BME280;42700;42.524;12.052;2022-07-23T09:25:35;72612.97;;;39.65;76.45
56198;BME280;42700;42.524;12.052;2022-07-23T09:28:00;70930.78;;;39.85;68.60
56198;BME280;42700;42.524;12.052;2022-07-23T09:30:30;68826.66;;;39.94;70.61
56198;BME280;42700;42.524;12.052;2022-07-23T09:33:12;63639.38;;;39.64;48.36
56198;BME280;42700;42.524;12.052;2022-07-23T09:38:09;66779.97;;;40.12;71.88
56198;BME280;42700;42.524;12.052;2022-07-23T09:40:34;67898.53;;;40.16;59.31
56198;BME280;42700;42.524;12.052;2022-07-23T09:43:00;58207.00;;;39.13;47.76
56198;BME280;42700;42.524;12.052;2022-07-23T09:45:25;64528.28;;;40.19;60.86
56198;BME280;42700;42.524;12.052;2022-07-23T09:47:51;69514.44;;;40.76;59.52
56198;BME280;42700;42.524;12.052;2022-07-23T09:50:36;74647.31;;;41.07;68.13
56198;BME280;42700;42.524;12.052;2022-07-23T09:53:01;72233.78;;;40.94;69.76
56198;BME280;42700;42.524;12.052;2022-07-23T09:55:30;70212.28;;;40.82;45.57
56198;BME280;42700;42.524;12.052;2022-07-23T09:58:00;69332.75;;;41.16;59.14
56198;BME280;42700;42.524;12.052;2022-07-23T10:00:26;68876.56;;;41.46;40.05
56198;BME280;42700;42.524;12.052;2022-07-23T10:02:52;61544.94;;;41.01;37.29
56198;BME280;42700;42.524;12.052;2022-07-23T10:05:19;69630.69;;;41.60;60.82
56198;BME280;42700;42.524;12.052;2022-07-23T10:07:45;68420.63;;;41.39;49.82
56198;BME280;42700;42.524;12.052;2022-07-23T10:10:11;68290.94;;;41.49;51.86
56198;BME280;42700;42.524;12.052;2022-07-23T10:12:38;70471.06;;;41.83;46.15
56198;BME280;42700;42.524;12.052;2022-07-23T10:15:16;73353.75;;;42.14;56.33
56198;BME280;42700;42.524;12.052;2022-07-23T10:17:42;72884.31;;;42.20;56.18
56198;BME280;42700;42.524;12.052;2022-07-23T10:20:08;68839.91;;;42.05;48.48
56198;BME280;42700;42.524;12.052;2022-07-23T10:22:35;70059.81;;;42.38;51.34
56198;BME280;42700;42.524;12.052;2022-07-23T10:25:08;67126.50;;;42.38;37.14
56198;BME280;42700;42.524;12.052;2022-07-23T10:30:05;62788.72;;;41.90;29.66
56198;BME280;42700;42.524;12.052;2022-07-23T10:35:17;57303.78;;;40.65;38.87
56198;BME280;42700;42.524;12.052;2022-07-23T10:37:46;66547.44;;;41.94;42.64
56198;BME280;42700;42.524;12.052;2022-07-23T10:40:20;71561.00;;;42.59;42.84
56198;BME280;42700;42.524;12.052;2022-07-23T10:42:48;73452.78;;;43.09;43.85
56198;BME280;42700;42.524;12.052;2022-07-23T10:50:42;67898.44;;;42.70;40.34
56198;BME280;42700;42.524;12.052;2022-07-23T10:53:10;71978.75;;;43.33;38.82
56198;BME280;42700;42.524;12.052;2022-07-23T10:58:09;76377.41;;;43.92;42.58
56198;BME280;42700;42.524;12.052;2022-07-23T11:00:36;77405.09;;;44.17;42.31
56198;BME280;42700;42.524;12.052;2022-07-23T11:03:05;72706.22;;;43.28;40.93
56198;BME280;42700;42.524;12.052;2022-07-23T11:05:50;77167.69;;;43.83;45.59
56198;BME280;42700;42.524;12.052;2022-07-23T11:08:16;78846.69;;;43.97;46.63
56198;BME280;42700;42.524;12.052;2022-07-23T11:10:46;76168.41;;;43.41;46.16
56198;BME280;42700;42.524;12.052;2022-07-23T11:34:35;77491.50;;;43.97;44.49
56198;BME280;42700;42.524;12.052;2022-07-23T11:37:02;77490.78;;;44.10;42.44
56198;BME280;42700;42.524;12.052;2022-07-23T11:39:29;77936.66;;;44.37;41.28
56198;BME280;42700;42.524;12.052;2022-07-23T11:41:56;73558.78;;;43.64;42.27
56198;BME280;42700;42.524;12.052;2022-07-23T11:44:29;78475.16;;;44.47;40.54
56198;BME280;42700;42.524;12.052;2022-07-23T11:46:58;78028.75;;;44.62;39.19
56198;BME280;42700;42.524;12.052;2022-07-23T11:49:24;77158.22;;;44.70;37.03
56198;BME280;42700;42.524;12.052;2022-07-23T11:54:28;73607.22;;;44.14;37.04
56198;BME280;42700;42.524;12.052;2022-07-23T11:56:55;76008.69;;;44.45;38.96
56198;BME280;42700;42.524;12.052;2022-07-23T11:59:20;74253.81;;;44.44;32.36
56198;BME280;42700;42.524;12.052;2022-07-23T12:01:59;78169.53;;;44.81;38.50
56198;BME280;42700;42.524;12.052;2022-07-23T12:04:43;78754.78;;;44.94;38.60
56198;BME280;42700;42.524;12.052;2022-07-23T12:07:25;80791.81;;;45.30;39.20
56198;BME280;42700;42.524;12.052;2022-07-23T12:09:51;83006.84;;;45.80;38.47
56198;BME280;42700;42.524;12.052;2022-07-23T12:12:16;82001.41;;;45.76;38.12
56198;BME280;42700;42.524;12.052;2022-07-23T12:17:16;82239.19;;;45.83;36.38
56198;BME280;42700;42.524;12.052;2022-07-23T12:19:42;78915.31;;;45.07;36.43
56198;BME280;42700;42.524;12.052;2022-07-23T12:22:07;81444.47;;;45.60;35.69
56198;BME280;42700;42.524;12.052;2022-07-23T12:27:19;80652.81;;;45.74;32.29
56198;BME280;42700;42.524;12.052;2022-07-23T12:29:45;81456.91;;;45.87;34.86
56198;BME280;42700;42.524;12.052;2022-07-23T12:32:17;81583.06;;;45.79;35.57
56198;BME280;42700;42.524;12.052;2022-07-23T12:34:43;81134.00;;;45.92;31.77
56198;BME280;42700;42.524;12.052;2022-07-23T12:37:23;82800.66;;;46.21;34.90
56198;BME280;42700;42.524;12.052;2022-07-23T12:39:50;71470.91;;;44.22;32.10
56198;BME280;42700;42.524;12.052;2022-07-23T12:42:15;71271.16;;;43.94;30.92
56198;BME280;42700;42.524;12.052;2022-07-23T12:44:41;75285.75;;;44.41;35.12
56198;BME280;42700;42.524;12.052;2022-07-23T12:47:06;79298.75;;;45.06;36.07
56198;BME280;42700;42.524;12.052;2022-07-23T12:49:32;80304.00;;;45.44;34.64
56198;BME280;42700;42.524;12.052;2022-07-23T12:51:57;70904.81;;;43.99;30.05
56198;BME280;42700;42.524;12.052;2022-07-23T12:54:26;78578.34;;;45.31;35.05
56198;BME280;42700;42.524;12.052;2022-07-23T12:56:53;76564.97;;;45.36;26.64
56198;BME280;42700;42.524;12.052;2022-07-23T12:59:19;72639.41;;;44.62;31.44
56198;BME280;42700;42.524;12.052;2022-07-23T13:01:45;77099.75;;;45.33;32.16
56198;BME280;42700;42.524;12.052;2022-07-23T13:04:14;74579.25;;;45.02;31.34
56198;BME280;42700;42.524;12.052;2022-07-23T13:06:47;76633.84;;;45.42;29.40
56198;BME280;42700;42.524;12.052;2022-07-23T13:09:16;62527.78;;;42.62;29.17
56198;BME280;42700;42.524;12.052;2022-07-23T13:11:43;68134.66;;;43.64;27.95
56198;BME280;42700;42.524;12.052;2022-07-23T13:14:09;69171.25;;;43.63;30.68
56198;BME280;42700;42.524;12.052;2022-07-23T13:16:34;64618.88;;;42.83;29.25
56198;BME280;42700;42.524;12.052;2022-07-23T13:19:00;75717.34;;;44.69;32.66
56198;BME280;42700;42.524;12.052;2022-07-23T13:21:27;77480.25;;;45.27;31.78
56198;BME280;42700;42.524;12.052;2022-07-23T13:23:53;73096.53;;;44.72;28.05
56198;BME280;42700;42.524;12.052;2022-07-23T13:26:18;75860.59;;;45.25;28.49